Foxton, Colorado
Current Conditions -  °F | °C
As of 3:53 PM on Tuesday 25 Nov 2014 (Local Time) from KAPA Reporting Station
Broken Clouds Broken Clouds  
Wind Chill: 36°   Ceiling: 20000
Heat Index: 45°   Visibility: 10mi
Dew Point: 19°   Wind: 24mph
Humidity: 36%   Direction: 320°NW
Pressure: 29.91"   Gusts: 31mph
Location:  39.4975°N, 105.289°W
Report Text: KAPA 252253Z 32021G27KT 10SM FEW100 SCT140 BKN200 07/M07 A2991 RMK AO2 PK WND 32027/2252 SLP144 T00721072
Loading
Personal Weather Stations






























Interactive Weather Map New forecast layout! Learn more

10-Day Weather Forecast

Advertisements
Track Severe Weather on mobile